createdAt,value
2018-08-11T00:00:32.920Z,99.90
2018-08-11T00:01:06.842Z,99.90
2018-08-11T00:01:40.442Z,99.90
2018-08-11T00:02:14.112Z,99.90
2018-08-11T00:02:47.717Z,99.90
2018-08-11T00:03:21.325Z,99.90
2018-08-11T00:03:54.949Z,99.90
2018-08-11T00:04:28.581Z,99.90
2018-08-11T00:05:02.204Z,99.90
2018-08-11T00:05:35.795Z,99.90
2018-08-11T00:06:09.424Z,99.90
2018-08-11T00:06:43.050Z,99.90
2018-08-11T00:07:16.645Z,99.90
2018-08-11T00:07:50.593Z,99.90
2018-08-11T00:08:24.241Z,99.90
2018-08-11T00:08:57.844Z,99.90
2018-08-11T00:09:31.450Z,99.90
2018-08-11T00:10:06.965Z,99.90
2018-08-11T00:10:40.594Z,99.90
2018-08-11T00:11:14.259Z,99.90
2018-08-11T00:11:47.814Z,99.90
2018-08-11T00:12:21.433Z,99.90
2018-08-11T00:12:55.022Z,99.90
2018-08-11T00:13:28.691Z,99.90
2018-08-11T00:14:02.275Z,99.90
2018-08-11T00:14:35.955Z,99.90
2018-08-11T00:15:14.847Z,99.90
2018-08-11T00:15:48.424Z,99.90
2018-08-11T00:16:22.042Z,99.90
2018-08-11T00:16:55.639Z,99.90
2018-08-11T00:17:29.540Z,99.90
2018-08-11T00:18:03.181Z,99.90
2018-08-11T00:18:36.763Z,99.90
2018-08-11T00:19:10.328Z,99.90
2018-08-11T00:19:43.948Z,99.90
2018-08-11T00:20:23.901Z,99.90
2018-08-11T00:20:57.460Z,99.90
2018-08-11T00:21:31.128Z,99.90
2018-08-11T00:22:04.782Z,99.90
2018-08-11T00:22:39.025Z,99.90
2018-08-11T00:23:12.744Z,99.90
2018-08-11T00:23:46.397Z,99.90
2018-08-11T00:24:20.031Z,99.90
2018-08-11T00:24:53.567Z,99.90
2018-08-11T00:25:27.207Z,99.90
2018-08-11T00:26:00.869Z,99.90
2018-08-11T00:26:34.491Z,99.90
2018-08-11T00:27:08.086Z,99.90
2018-08-11T00:27:41.764Z,99.90
2018-08-11T00:28:15.347Z,99.90
2018-08-11T00:28:48.963Z,99.90
2018-08-11T00:29:22.535Z,99.90
2018-08-11T00:29:56.099Z,99.90
2018-08-11T00:30:29.816Z,99.90
2018-08-11T00:31:03.407Z,99.90
2018-08-11T00:31:37.229Z,99.90
2018-08-11T00:32:10.875Z,99.90
2018-08-11T00:32:44.483Z,99.90
2018-08-11T00:33:18.036Z,99.90
2018-08-11T00:33:51.596Z,99.90
2018-08-11T00:34:25.161Z,99.90
2018-08-11T00:34:59.362Z,99.90
2018-08-11T00:35:32.973Z,99.90
2018-08-11T00:36:06.642Z,99.90
2018-08-11T00:36:40.217Z,99.90
2018-08-11T00:37:13.785Z,99.90
2018-08-11T00:37:47.345Z,99.90
2018-08-11T00:38:20.970Z,99.90
2018-08-11T00:38:54.541Z,99.90
2018-08-11T00:39:28.116Z,99.90
2018-08-11T00:40:01.769Z,99.90
2018-08-11T00:40:35.315Z,99.90
2018-08-11T00:41:08.895Z,99.90
2018-08-11T00:41:42.473Z,99.90
2018-08-11T00:42:16.059Z,99.90
2018-08-11T00:42:50.304Z,99.90
2018-08-11T00:43:23.838Z,99.90
2018-08-11T00:43:57.486Z,99.90
2018-08-11T00:44:31.105Z,99.90
2018-08-11T00:45:08.447Z,99.90
2018-08-11T00:45:42.065Z,99.90
2018-08-11T00:46:15.718Z,99.90
2018-08-11T00:46:49.275Z,99.90
2018-08-11T00:47:22.861Z,99.90
2018-08-11T00:47:56.423Z,99.90
2018-08-11T00:48:30.152Z,99.90
2018-08-11T00:49:03.840Z,99.90
2018-08-11T00:49:37.534Z,99.90
2018-08-11T00:50:23.930Z,99.90
2018-08-11T00:50:57.557Z,99.90
2018-08-11T00:51:31.178Z,99.90
2018-08-11T00:52:04.889Z,99.90
2018-08-11T00:52:38.587Z,99.90
2018-08-11T00:53:12.245Z,99.90
2018-08-11T00:53:45.834Z,99.90
2018-08-11T00:54:19.433Z,99.90
2018-08-11T00:54:53.007Z,99.90
2018-08-11T00:55:26.610Z,99.90
2018-08-11T00:56:00.235Z,99.90
2018-08-11T00:56:33.796Z,99.90
2018-08-11T00:57:07.454Z,99.90
2018-08-11T00:57:41.375Z,99.90
2018-08-11T00:58:14.923Z,99.90
2018-08-11T00:58:48.596Z,99.90
2018-08-11T00:59:22.159Z,99.90
2018-08-11T00:59:55.765Z,99.90
2018-08-11T01:00:29.303Z,99.90
2018-08-11T01:01:02.919Z,99.90
2018-08-11T01:01:36.519Z,99.90
2018-08-11T01:02:10.165Z,99.90
2018-08-11T01:02:43.925Z,99.90
2018-08-11T01:03:17.581Z,99.90
2018-08-11T01:03:51.182Z,99.90
2018-08-11T01:04:25.090Z,99.90
2018-08-11T01:04:58.668Z,99.90
2018-08-11T01:05:32.309Z,99.90
2018-08-11T01:06:06.064Z,99.90
2018-08-11T01:06:39.689Z,99.90
2018-08-11T01:07:13.237Z,99.90
2018-08-11T01:07:47.395Z,99.90
2018-08-11T01:08:20.977Z,99.90
2018-08-11T01:08:54.547Z,99.90
2018-08-11T01:09:28.126Z,99.90
2018-08-11T01:10:01.676Z,99.90
2018-08-11T01:10:35.294Z,99.90
2018-08-11T01:11:08.934Z,99.90
2018-08-11T01:11:42.527Z,99.90
2018-08-11T01:12:16.114Z,99.90
2018-08-11T01:12:49.710Z,99.90
2018-08-11T01:13:23.285Z,99.90
2018-08-11T01:13:56.891Z,99.90
2018-08-11T01:14:30.495Z,99.90
2018-08-11T01:15:05.287Z,99.90
2018-08-11T01:15:38.912Z,99.90
2018-08-11T01:16:13.507Z,99.90
2018-08-11T01:16:47.095Z,99.90
2018-08-11T01:17:20.655Z,99.90
2018-08-11T01:17:54.218Z,99.90
2018-08-11T01:18:27.745Z,99.90
2018-08-11T01:19:01.357Z,99.90
2018-08-11T01:19:34.899Z,99.90
2018-08-11T01:20:10.336Z,97.40
2018-08-11T01:20:43.947Z,92.90
2018-08-11T01:21:17.583Z,92.70
2018-08-11T01:21:51.221Z,93.50
2018-08-11T01:22:24.890Z,95.10
2018-08-11T01:22:58.587Z,96.40
2018-08-11T01:23:32.125Z,97.60
2018-08-11T01:24:05.802Z,98.50
2018-08-11T01:24:39.437Z,98.80
2018-08-11T01:25:13.641Z,99.30
2018-08-11T01:25:47.223Z,98.80
2018-08-11T01:26:20.763Z,99.30
2018-08-11T01:26:54.461Z,99.90
2018-08-11T01:27:28.047Z,99.90
2018-08-11T01:28:01.604Z,96.60
2018-08-11T01:28:35.155Z,91.90
2018-08-11T01:29:08.755Z,91.10
2018-08-11T01:29:42.311Z,92.20
2018-08-11T01:30:19.514Z,92.90
2018-08-11T01:30:53.088Z,93.60
2018-08-11T01:31:26.700Z,94.70
2018-08-11T01:32:00.307Z,95.30
2018-08-11T01:32:33.917Z,96.10
2018-08-11T01:33:07.541Z,96.60
2018-08-11T01:33:41.124Z,95.50
2018-08-11T01:34:14.741Z,95.60
2018-08-11T01:34:48.311Z,96.10
2018-08-11T01:35:21.896Z,96.70
2018-08-11T01:35:55.475Z,96.50
2018-08-11T01:36:29.017Z,94.90
2018-08-11T01:37:02.567Z,94.60
2018-08-11T01:37:36.769Z,94.80
2018-08-11T01:38:10.389Z,94.90
2018-08-11T01:38:43.945Z,95.00
2018-08-11T01:39:17.557Z,94.80
2018-08-11T01:39:51.117Z,95.10
2018-08-11T01:40:24.679Z,93.20
2018-08-11T01:40:58.249Z,91.60
2018-08-11T01:41:31.813Z,91.30
2018-08-11T01:42:05.365Z,91.30
2018-08-11T01:42:39.886Z,89.40
2018-08-11T01:43:13.525Z,89.60
2018-08-11T01:43:47.120Z,90.00
2018-08-11T01:44:20.720Z,90.20
2018-08-11T01:44:54.354Z,90.70
2018-08-11T01:45:27.964Z,91.00
2018-08-11T01:46:01.563Z,85.70
2018-08-11T01:46:35.120Z,83.00
2018-08-11T01:47:08.657Z,83.60
2018-08-11T01:47:42.459Z,83.60
2018-08-11T01:48:16.027Z,83.70
2018-08-11T01:48:49.575Z,85.40
2018-08-11T01:49:23.148Z,86.40
2018-08-11T01:49:56.911Z,86.90
2018-08-11T01:50:30.492Z,87.80
2018-08-11T01:51:04.086Z,88.20
2018-08-11T01:51:37.702Z,88.60
2018-08-11T01:52:11.297Z,88.60
2018-08-11T01:52:45.977Z,89.10
2018-08-11T01:53:19.521Z,89.10
2018-08-11T01:53:53.081Z,88.30
2018-08-11T01:54:26.669Z,87.80
2018-08-11T01:55:00.297Z,88.00
2018-08-11T01:55:33.851Z,88.10
2018-08-11T01:56:07.445Z,88.30
2018-08-11T01:56:40.967Z,88.50
2018-08-11T01:57:14.554Z,89.00
2018-08-11T01:57:48.125Z,89.00
2018-08-11T01:58:21.701Z,89.10
2018-08-11T01:58:55.246Z,89.20
2018-08-11T01:59:28.871Z,89.00
2018-08-11T02:00:02.563Z,89.00
2018-08-11T02:00:36.114Z,89.20
2018-08-11T02:01:09.734Z,89.40
2018-08-11T02:01:43.319Z,89.60
2018-08-11T02:02:16.926Z,89.80
2018-08-11T02:02:50.523Z,89.20
2018-08-11T02:03:24.088Z,89.10
2018-08-11T02:03:57.664Z,89.80
2018-08-11T02:04:31.228Z,90.50
2018-08-11T02:05:05.333Z,90.90
2018-08-11T02:05:38.876Z,90.90
2018-08-11T02:06:12.488Z,91.80
2018-08-11T02:06:46.033Z,92.60
2018-08-11T02:07:19.609Z,92.40
2018-08-11T02:07:53.153Z,91.40
2018-08-11T02:08:26.731Z,91.00
2018-08-11T02:09:00.292Z,91.20
2018-08-11T02:09:33.875Z,91.50
2018-08-11T02:10:11.885Z,92.00
2018-08-11T02:10:45.464Z,92.90
2018-08-11T02:11:19.113Z,94.20
2018-08-11T02:11:52.611Z,94.70
2018-08-11T02:12:26.131Z,95.20
2018-08-11T02:12:59.720Z,95.10
2018-08-11T02:13:33.303Z,93.90
2018-08-11T02:14:07.230Z,93.60
2018-08-11T02:14:40.788Z,91.60
2018-08-11T02:15:14.809Z,91.70
2018-08-11T02:15:48.397Z,91.50
2018-08-11T02:16:21.982Z,91.00
2018-08-11T02:16:55.641Z,91.30
2018-08-11T02:17:29.231Z,91.50
2018-08-11T02:18:02.899Z,91.50
2018-08-11T02:18:36.435Z,92.30
2018-08-11T02:19:10.060Z,93.20
2018-08-11T02:19:43.656Z,90.30
2018-08-11T02:20:18.543Z,88.60
2018-08-11T02:20:52.059Z,86.70
2018-08-11T02:21:25.625Z,86.60
2018-08-11T02:21:59.197Z,86.90
2018-08-11T02:22:32.759Z,86.60
2018-08-11T02:23:06.516Z,84.20
2018-08-11T02:23:40.072Z,83.80
2018-08-11T02:24:13.656Z,83.00
2018-08-11T02:24:47.219Z,82.80
2018-08-11T02:25:20.831Z,82.70
2018-08-11T02:25:54.432Z,83.40
2018-08-11T02:26:27.972Z,83.10
2018-08-11T02:27:01.493Z,81.50
2018-08-11T02:27:35.369Z,83.10
2018-08-11T02:28:08.944Z,84.20
2018-08-11T02:28:42.515Z,85.30
2018-08-11T02:29:16.074Z,84.60
2018-08-11T02:29:49.625Z,85.80
2018-08-11T02:30:23.268Z,87.00
2018-08-11T02:30:56.855Z,86.30
2018-08-11T02:31:30.465Z,86.30
2018-08-11T02:32:04.379Z,84.30
2018-08-11T02:32:38.283Z,83.80
2018-08-11T02:33:11.923Z,84.20
2018-08-11T02:33:45.533Z,82.30
2018-08-11T02:34:19.105Z,81.50
2018-08-11T02:34:52.683Z,80.00
2018-08-11T02:35:26.284Z,80.70
2018-08-11T02:35:59.831Z,81.60
2018-08-11T02:36:33.373Z,82.70
2018-08-11T02:37:07.046Z,81.60
2018-08-11T02:37:41.013Z,81.80
2018-08-11T02:38:14.621Z,82.10
2018-08-11T02:38:48.171Z,82.00
2018-08-11T02:39:21.788Z,78.20
2018-08-11T02:39:55.411Z,69.20
2018-08-11T02:40:28.971Z,72.00
2018-08-11T02:41:02.518Z,72.90
2018-08-11T02:41:36.135Z,72.40
2018-08-11T02:42:09.769Z,71.00
2018-08-11T02:42:43.397Z,72.30
2018-08-11T02:43:16.971Z,73.10
2018-08-11T02:43:50.496Z,74.40
2018-08-11T02:44:24.083Z,75.80
2018-08-11T02:44:57.717Z,77.30
2018-08-11T02:45:31.287Z,77.10
2018-08-11T02:46:04.986Z,77.20
2018-08-11T02:46:38.623Z,75.40
2018-08-11T02:47:12.203Z,74.90
2018-08-11T02:47:46.573Z,75.60
2018-08-11T02:48:20.158Z,76.60
2018-08-11T02:48:53.704Z,76.30
2018-08-11T02:49:27.269Z,77.60
2018-08-11T02:50:00.816Z,77.90
2018-08-11T02:50:34.402Z,78.10
2018-08-11T02:51:07.969Z,77.90
2018-08-11T02:51:41.505Z,79.00
2018-08-11T02:52:15.097Z,78.20
2018-08-11T02:52:48.629Z,78.10
2018-08-11T02:53:22.201Z,78.90
2018-08-11T02:53:55.761Z,76.60
2018-08-11T02:54:29.310Z,73.80
2018-08-11T02:55:02.965Z,71.90
2018-08-11T02:55:36.521Z,73.40
2018-08-11T02:56:10.097Z,74.80
2018-08-11T02:56:43.665Z,71.50
2018-08-11T02:57:17.205Z,73.00
2018-08-11T02:57:50.751Z,69.90
2018-08-11T02:58:24.343Z,63.60
2018-08-11T02:58:57.929Z,66.50
2018-08-11T02:59:31.459Z,68.40
2018-08-11T03:00:08.360Z,62.70
2018-08-11T03:00:41.930Z,61.20
2018-08-11T03:01:15.501Z,62.70
2018-08-11T03:01:49.065Z,62.40
2018-08-11T03:02:22.697Z,63.20
2018-08-11T03:02:56.265Z,64.50
2018-08-11T03:03:29.815Z,64.20
2018-08-11T03:04:03.406Z,59.00
2018-08-11T03:04:36.921Z,61.10
2018-08-11T03:05:10.473Z,57.50
2018-08-11T03:05:44.022Z,58.60
2018-08-11T03:06:17.605Z,61.60
2018-08-11T03:06:51.501Z,64.10
2018-08-11T03:07:25.061Z,66.80
2018-08-11T03:07:58.596Z,68.00
2018-08-11T03:08:32.138Z,65.40
2018-08-11T03:09:08.091Z,66.40
2018-08-11T03:09:41.615Z,67.30
2018-08-11T03:10:15.183Z,66.60
2018-08-11T03:10:48.741Z,65.60
2018-08-11T03:11:22.339Z,64.80
2018-08-11T03:11:55.897Z,65.90
2018-08-11T03:12:29.479Z,65.10
2018-08-11T03:13:03.046Z,64.70
2018-08-11T03:13:36.574Z,66.90
2018-08-11T03:14:10.248Z,69.70
2018-08-11T03:14:43.693Z,62.90
2018-08-11T03:15:17.280Z,58.70
2018-08-11T03:15:50.877Z,57.90
2018-08-11T03:16:24.458Z,54.60
2018-08-11T03:16:57.993Z,50.60
2018-08-11T03:17:31.537Z,50.90
2018-08-11T03:18:05.271Z,50.90
2018-08-11T03:18:38.813Z,52.90
2018-08-11T03:19:12.361Z,53.50
2018-08-11T03:19:45.947Z,55.10
2018-08-11T03:20:19.495Z,56.40
2018-08-11T03:20:53.111Z,58.80
2018-08-11T03:21:26.637Z,60.30
2018-08-11T03:22:00.230Z,62.60
2018-08-11T03:22:33.785Z,63.40
2018-08-11T03:23:07.319Z,65.30
2018-08-11T03:23:40.865Z,66.60
2018-08-11T03:24:14.401Z,67.20
2018-08-11T03:24:47.997Z,65.50
2018-08-11T03:25:21.555Z,66.60
2018-08-11T03:25:55.132Z,68.80
2018-08-11T03:26:28.655Z,71.80
2018-08-11T03:27:02.242Z,72.70
2018-08-11T03:27:35.775Z,73.10
2018-08-11T03:28:09.293Z,74.70
2018-08-11T03:28:42.827Z,76.00
2018-08-11T03:29:16.335Z,77.10
2018-08-11T03:29:49.883Z,77.90
2018-08-11T03:30:23.425Z,77.30
2018-08-11T03:30:56.952Z,75.10
2018-08-11T03:31:30.503Z,68.50
2018-08-11T03:32:04.095Z,66.60
2018-08-11T03:32:37.647Z,63.70
2018-08-11T03:33:11.161Z,62.30
2018-08-11T03:33:44.725Z,64.30
2018-08-11T03:34:18.255Z,65.80
2018-08-11T03:34:51.788Z,68.30
2018-08-11T03:35:25.324Z,70.10
2018-08-11T03:35:58.841Z,72.00
2018-08-11T03:36:32.392Z,73.30
2018-08-11T03:37:06.033Z,74.20
2018-08-11T03:37:39.634Z,73.70
2018-08-11T03:38:13.189Z,73.20
2018-08-11T03:38:46.741Z,73.20
2018-08-11T03:39:20.297Z,73.30
2018-08-11T03:39:53.860Z,73.30
2018-08-11T03:40:27.371Z,73.90
2018-08-11T03:41:00.925Z,74.00
2018-08-11T03:41:34.489Z,73.10
2018-08-11T03:42:08.060Z,72.00
2018-08-11T03:42:42.123Z,72.30
2018-08-11T03:43:15.635Z,73.70
2018-08-11T03:43:49.140Z,75.30
2018-08-11T03:44:22.711Z,76.30
2018-08-11T03:44:56.242Z,77.00
2018-08-11T03:45:29.772Z,77.60
2018-08-11T03:46:03.399Z,78.20
2018-08-11T03:46:36.878Z,78.70
2018-08-11T03:47:10.453Z,79.80
2018-08-11T03:47:43.945Z,80.40
2018-08-11T03:48:17.475Z,80.50
2018-08-11T03:48:51.011Z,81.00
2018-08-11T03:49:24.554Z,81.50
2018-08-11T03:49:58.135Z,80.30
2018-08-11T03:50:31.708Z,81.00
2018-08-11T03:51:05.238Z,81.70
2018-08-11T03:51:38.825Z,84.00
2018-08-11T03:52:12.425Z,85.40
2018-08-11T03:52:45.950Z,88.10
2018-08-11T03:53:19.510Z,88.40
2018-08-11T03:53:53.039Z,87.40
2018-08-11T03:54:26.604Z,87.60
2018-08-11T03:55:00.159Z,86.00
2018-08-11T03:55:33.689Z,83.80
2018-08-11T03:56:07.256Z,82.50
2018-08-11T03:56:40.823Z,79.50
2018-08-11T03:57:14.388Z,79.90
2018-08-11T03:57:47.913Z,80.30
2018-08-11T03:58:21.437Z,80.10
2018-08-11T03:58:54.940Z,80.90
2018-08-11T03:59:28.559Z,80.80
2018-08-11T04:00:02.285Z,81.50
2018-08-11T04:00:35.792Z,81.40
2018-08-11T04:01:09.370Z,82.00
2018-08-11T04:01:42.946Z,78.60
2018-08-11T04:02:16.459Z,77.90
2018-08-11T04:02:50.015Z,79.80
2018-08-11T04:03:23.568Z,81.80
2018-08-11T04:03:57.105Z,82.80
2018-08-11T04:04:30.644Z,83.60
2018-08-11T04:05:04.516Z,84.10
2018-08-11T04:05:38.061Z,84.40
2018-08-11T04:06:11.594Z,85.80
2018-08-11T04:06:45.217Z,86.00
2018-08-11T04:07:18.721Z,84.20
2018-08-11T04:07:52.243Z,82.00
2018-08-11T04:08:25.818Z,81.30
2018-08-11T04:08:59.335Z,82.20
2018-08-11T04:09:32.899Z,82.70
2018-08-11T04:10:06.501Z,83.20
2018-08-11T04:10:40.039Z,83.40
2018-08-11T04:11:13.607Z,83.90
2018-08-11T04:11:47.097Z,84.10
2018-08-11T04:12:20.641Z,84.40
2018-08-11T04:12:54.173Z,85.50
2018-08-11T04:13:27.702Z,81.80
2018-08-11T04:14:01.191Z,84.10
2018-08-11T04:14:34.734Z,84.60
2018-08-11T04:15:08.292Z,84.70
2018-08-11T04:15:41.885Z,83.00
2018-08-11T04:16:15.504Z,80.50
2018-08-11T04:16:49.021Z,77.30
2018-08-11T04:17:31.120Z,76.60
2018-08-11T04:18:04.756Z,77.80
2018-08-11T04:18:38.318Z,80.80
2018-08-11T04:19:11.896Z,82.50
2018-08-11T04:19:45.459Z,83.70
2018-08-11T04:20:19.088Z,86.90
2018-08-11T04:20:52.623Z,88.50
2018-08-11T04:21:26.141Z,89.00
2018-08-11T04:21:59.694Z,89.10
2018-08-11T04:22:33.296Z,89.40
2018-08-11T04:23:06.900Z,89.90
2018-08-11T04:23:40.463Z,90.20
2018-08-11T04:24:14.011Z,90.50
2018-08-11T04:24:47.594Z,90.70
2018-08-11T04:25:21.113Z,90.90
2018-08-11T04:25:54.676Z,90.90
2018-08-11T04:26:28.273Z,91.00
2018-08-11T04:27:01.801Z,92.10
2018-08-11T04:27:35.882Z,89.90
2018-08-11T04:28:09.372Z,88.60
2018-08-11T04:28:42.904Z,89.30
2018-08-11T04:29:16.453Z,89.60
2018-08-11T04:29:50.002Z,89.70
2018-08-11T04:30:23.493Z,89.40
2018-08-11T04:30:57.040Z,88.20
2018-08-11T04:31:30.602Z,88.10
2018-08-11T04:32:04.203Z,87.60
2018-08-11T04:32:37.992Z,87.70
2018-08-11T04:33:11.558Z,88.10
2018-08-11T04:33:45.082Z,87.50
2018-08-11T04:34:18.590Z,86.70
2018-08-11T04:34:52.101Z,84.20
2018-08-11T04:35:25.633Z,75.10
2018-08-11T04:35:59.220Z,74.80
2018-08-11T04:36:32.786Z,72.20
2018-08-11T04:37:06.355Z,69.10
2018-08-11T04:37:39.886Z,68.20
2018-08-11T04:38:13.412Z,63.90
2018-08-11T04:38:46.960Z,60.30
2018-08-11T04:39:20.476Z,53.30
2018-08-11T04:39:54.067Z,53.80
2018-08-11T04:40:27.595Z,55.10
2018-08-11T04:41:01.144Z,54.40
2018-08-11T04:41:34.731Z,55.60
2018-08-11T04:42:08.312Z,56.50
2018-08-11T04:42:41.791Z,57.00
2018-08-11T04:43:15.348Z,57.00
2018-08-11T04:43:48.883Z,59.70
2018-08-11T04:44:22.463Z,62.60
2018-08-11T04:44:55.992Z,63.20
2018-08-11T04:45:29.532Z,64.90
2018-08-11T04:46:03.079Z,64.70
2018-08-11T04:46:36.648Z,63.40
2018-08-11T04:47:10.285Z,63.70
2018-08-11T04:47:43.807Z,61.00
2018-08-11T04:48:17.364Z,60.30
2018-08-11T04:48:50.913Z,60.70
2018-08-11T04:49:24.439Z,62.10
2018-08-11T04:49:57.974Z,63.40
2018-08-11T04:50:31.522Z,64.50
2018-08-11T04:51:05.113Z,66.70
2018-08-11T04:51:38.682Z,67.80
2018-08-11T04:52:12.203Z,68.70
2018-08-11T04:52:45.749Z,70.80
2018-08-11T04:53:19.261Z,70.50
2018-08-11T04:53:52.816Z,70.80
2018-08-11T04:54:26.359Z,71.00
2018-08-11T04:54:59.893Z,70.70
2018-08-11T04:55:33.438Z,69.50
2018-08-11T04:56:06.990Z,66.90
2018-08-11T04:56:40.588Z,67.30
2018-08-11T04:57:14.158Z,63.90
2018-08-11T04:57:47.692Z,62.10
2018-08-11T04:58:21.262Z,64.80
2018-08-11T04:58:54.830Z,67.70
2018-08-11T04:59:28.453Z,66.60
2018-08-11T05:00:02.025Z,65.80
2018-08-11T05:00:35.634Z,64.60
2018-08-11T05:01:09.220Z,61.00
2018-08-11T05:01:42.752Z,59.40
2018-08-11T05:02:16.316Z,61.70
2018-08-11T05:02:49.888Z,64.20
2018-08-11T05:03:23.433Z,54.10
2018-08-11T05:03:57.014Z,56.60
2018-08-11T05:04:30.522Z,56.00
2018-08-11T05:05:04.932Z,57.00
2018-08-11T05:05:38.487Z,57.50
2018-08-11T05:06:12.011Z,58.60
2018-08-11T05:06:45.591Z,58.30
2018-08-11T05:07:19.101Z,58.20
2018-08-11T05:07:52.611Z,60.50
2018-08-11T05:08:26.171Z,58.60
2018-08-11T05:08:59.727Z,59.00
2018-08-11T05:09:33.309Z,57.10
2018-08-11T05:10:07.699Z,50.90
2018-08-11T05:10:41.274Z,48.20
2018-08-11T05:11:14.854Z,50.00
2018-08-11T05:11:48.464Z,49.70
2018-08-11T05:12:22.015Z,52.60
2018-08-11T05:12:55.536Z,50.20
2018-08-11T05:13:29.080Z,52.00
2018-08-11T05:14:02.766Z,51.70
2018-08-11T05:14:36.296Z,53.20
2018-08-11T05:15:09.950Z,52.00
2018-08-11T05:15:43.526Z,50.40
2018-08-11T05:16:17.058Z,51.90
2018-08-11T05:16:50.604Z,53.80
2018-08-11T05:17:24.174Z,55.00
2018-08-11T05:17:57.791Z,56.50
2018-08-11T05:18:31.414Z,58.80
2018-08-11T05:19:05.284Z,60.40
2018-08-11T05:19:38.826Z,60.60
2018-08-11T05:20:12.445Z,59.90
2018-08-11T05:20:45.984Z,60.50
2018-08-11T05:21:19.504Z,61.30
2018-08-11T05:21:53.072Z,55.70
2018-08-11T05:22:26.617Z,54.60
2018-08-11T05:23:00.159Z,56.10
2018-08-11T05:23:33.732Z,58.10
2018-08-11T05:24:07.532Z,58.60
2018-08-11T05:24:41.075Z,59.80
2018-08-11T05:25:14.586Z,60.00
2018-08-11T05:25:48.175Z,56.80
2018-08-11T05:26:21.746Z,57.30
2018-08-11T05:26:55.277Z,58.80
2018-08-11T05:27:28.860Z,55.10
2018-08-11T05:28:02.410Z,56.60
2018-08-11T05:28:35.963Z,56.70
2018-08-11T05:29:09.530Z,55.10
2018-08-11T05:29:43.105Z,54.00
2018-08-11T05:30:16.698Z,47.00
2018-08-11T05:30:50.250Z,48.90
2018-08-11T05:31:23.790Z,52.20
2018-08-11T05:31:57.329Z,54.70
2018-08-11T05:32:30.886Z,54.30
2018-08-11T05:33:04.786Z,50.30
2018-08-11T05:33:38.372Z,49.90
2018-08-11T05:34:11.899Z,49.20
2018-08-11T05:34:45.434Z,46.90
2018-08-11T05:35:18.975Z,47.20
2018-08-11T05:35:52.492Z,49.70
2018-08-11T05:36:26.060Z,51.30
2018-08-11T05:36:59.645Z,46.30
2018-08-11T05:37:33.526Z,36.40
2018-08-11T05:38:07.066Z,37.60
2018-08-11T05:38:40.602Z,40.10
2018-08-11T05:39:14.368Z,40.10
2018-08-11T05:39:47.923Z,41.90
2018-08-11T05:40:21.469Z,44.40
2018-08-11T05:40:55.011Z,45.20
2018-08-11T05:41:28.578Z,46.60
2018-08-11T05:42:02.201Z,46.70
2018-08-11T05:42:35.754Z,47.20
2018-08-11T05:43:09.263Z,43.50
2018-08-11T05:43:42.836Z,42.00
2018-08-11T05:44:16.368Z,42.50
2018-08-11T05:44:49.938Z,46.10
2018-08-11T05:45:23.492Z,47.40
2018-08-11T05:45:57.044Z,47.00
2018-08-11T05:46:30.585Z,48.10
2018-08-11T05:47:04.287Z,44.20
2018-08-11T05:47:37.889Z,39.80
2018-08-11T05:48:11.518Z,38.40
2018-08-11T05:48:45.081Z,40.80
2018-08-11T05:49:18.603Z,41.70
2018-08-11T05:49:52.436Z,44.20
2018-08-11T05:50:25.980Z,45.80
2018-08-11T05:50:59.538Z,44.00
2018-08-11T05:51:33.068Z,45.90
2018-08-11T05:52:06.669Z,47.10
2018-08-11T05:52:40.238Z,38.50
2018-08-11T05:53:13.805Z,38.10
2018-08-11T05:53:47.353Z,41.50
2018-08-11T05:54:20.898Z,41.90
2018-08-11T05:54:54.432Z,44.30
2018-08-11T05:55:27.971Z,45.60
2018-08-11T05:56:01.528Z,45.30
2018-08-11T05:56:35.066Z,32.10
2018-08-11T05:57:08.598Z,33.70
2018-08-11T05:57:42.344Z,30.50
2018-08-11T05:58:15.891Z,30.80
2018-08-11T05:58:49.440Z,31.70
2018-08-11T05:59:23.011Z,33.50
2018-08-11T05:59:56.557Z,36.50
2018-08-11T06:00:30.129Z,38.20
2018-08-11T06:01:03.717Z,38.80
2018-08-11T06:01:37.238Z,40.70
2018-08-11T06:02:10.822Z,41.80
2018-08-11T06:02:44.428Z,41.10
2018-08-11T06:03:18.326Z,38.60
2018-08-11T06:03:51.906Z,36.80
2018-08-11T06:04:25.622Z,35.90
2018-08-11T06:04:59.168Z,39.00
2018-08-11T06:05:32.698Z,40.60
2018-08-11T06:06:06.269Z,40.60
2018-08-11T06:06:39.815Z,40.40
2018-08-11T06:07:13.416Z,40.00
2018-08-11T06:07:46.956Z,41.20
2018-08-11T06:08:20.599Z,39.50
2018-08-11T06:08:54.133Z,35.30
2018-08-11T06:09:27.670Z,39.40
2018-08-11T06:10:01.247Z,42.70
2018-08-11T06:10:34.876Z,42.60
2018-08-11T06:11:08.410Z,43.30
2018-08-11T06:11:42.018Z,35.20
2018-08-11T06:12:15.585Z,32.60
2018-08-11T06:12:49.112Z,32.30
2018-08-11T06:13:22.638Z,26.10
2018-08-11T06:13:56.183Z,23.20
2018-08-11T06:14:29.708Z,26.20
2018-08-11T06:15:03.821Z,27.50
2018-08-11T06:15:37.400Z,27.20
2018-08-11T06:16:10.963Z,28.00
2018-08-11T06:16:44.479Z,24.30
2018-08-11T06:17:18.065Z,28.00
2018-08-11T06:17:51.648Z,30.80
2018-08-11T06:18:25.160Z,30.00
2018-08-11T06:18:58.717Z,32.70
2018-08-11T06:19:32.236Z,33.10
2018-08-11T06:20:07.824Z,27.80
2018-08-11T06:20:41.384Z,29.30
2018-08-11T06:21:15.052Z,29.60
2018-08-11T06:21:48.543Z,25.00
2018-08-11T06:22:22.152Z,22.80
2018-08-11T06:22:55.705Z,23.40
2018-08-11T06:23:29.238Z,25.40
2018-08-11T06:24:02.840Z,28.60
2018-08-11T06:24:36.429Z,24.50
2018-08-11T06:25:10.616Z,24.00
2018-08-11T06:25:44.174Z,28.80
2018-08-11T06:26:17.696Z,22.00
2018-08-11T06:26:51.474Z,22.90
2018-08-11T06:27:25.043Z,24.60
2018-08-11T06:27:58.600Z,23.80
2018-08-11T06:28:32.136Z,20.50
2018-08-11T06:29:05.752Z,17.50
2018-08-11T06:29:39.347Z,22.60
2018-08-11T06:30:12.980Z,23.70
2018-08-11T06:30:46.492Z,19.20
2018-08-11T06:31:20.075Z,18.80
2018-08-11T06:31:53.719Z,20.00
2018-08-11T06:32:27.230Z,24.60
2018-08-11T06:33:00.812Z,21.60
2018-08-11T06:33:34.395Z,20.00
2018-08-11T06:34:07.984Z,22.40
2018-08-11T06:34:41.537Z,19.70
2018-08-11T06:35:15.079Z,22.50
2018-08-11T06:35:48.670Z,18.10
2018-08-11T06:36:22.231Z,19.80
2018-08-11T06:36:55.798Z,23.10
2018-08-11T06:37:29.395Z,21.50
2018-08-11T06:38:03.020Z,23.60
2018-08-11T06:38:36.587Z,25.70
2018-08-11T06:39:12.542Z,29.50
2018-08-11T06:39:46.093Z,28.00
2018-08-11T06:40:19.696Z,28.50
2018-08-11T06:40:53.276Z,28.40
2018-08-11T06:41:26.800Z,27.30
2018-08-11T06:42:00.337Z,30.10
2018-08-11T06:42:33.952Z,30.70
2018-08-11T06:43:07.517Z,29.30
2018-08-11T06:43:41.043Z,24.50
2018-08-11T06:44:14.586Z,24.20
2018-08-11T06:44:48.232Z,23.40
2018-08-11T06:45:22.003Z,22.70
2018-08-11T06:45:55.648Z,23.70
2018-08-11T06:46:29.358Z,21.70
2018-08-11T06:47:03.067Z,23.30
2018-08-11T06:47:36.684Z,26.90
2018-08-11T06:48:10.301Z,27.90
2018-08-11T06:48:43.889Z,30.00
2018-08-11T06:49:17.415Z,28.90
2018-08-11T06:49:50.977Z,27.80
2018-08-11T06:50:24.502Z,27.10
2018-08-11T06:50:58.033Z,29.60
2018-08-11T06:51:31.622Z,30.20
2018-08-11T06:52:05.288Z,26.60
2018-08-11T06:52:38.796Z,27.20
2018-08-11T06:53:12.338Z,28.90
2018-08-11T06:53:45.892Z,33.40
2018-08-11T06:54:19.460Z,31.30
2018-08-11T06:54:53.005Z,31.30
2018-08-11T06:55:26.568Z,27.60
2018-08-11T06:56:00.151Z,26.50
2018-08-11T06:56:33.668Z,20.90
2018-08-11T06:57:07.212Z,19.70
2018-08-11T06:57:40.788Z,21.10
2018-08-11T06:58:14.358Z,20.40
2018-08-11T06:58:47.872Z,22.00
2018-08-11T06:59:21.384Z,15.20
2018-08-11T06:59:55.070Z,14.00
2018-08-11T07:00:28.622Z,14.40
2018-08-11T07:01:02.156Z,9.60
2018-08-11T07:01:35.820Z,5.00
2018-08-11T07:02:09.379Z,9.20
2018-08-11T07:02:42.939Z,8.40
2018-08-11T07:03:16.742Z,5.00
2018-08-11T07:03:50.291Z,5.00
2018-08-11T07:04:23.852Z,5.00
2018-08-11T07:04:57.408Z,6.40
2018-08-11T07:05:30.956Z,5.00
2018-08-11T07:06:04.530Z,5.10
2018-08-11T07:06:38.701Z,5.00
2018-08-11T07:07:12.230Z,5.00
2018-08-11T07:07:45.829Z,5.00
2018-08-11T07:08:19.334Z,5.00
2018-08-11T07:08:52.877Z,5.00
2018-08-11T07:09:26.418Z,5.00
2018-08-11T07:09:59.960Z,5.00
2018-08-11T07:10:33.607Z,5.00
2018-08-11T07:11:07.223Z,5.00
2018-08-11T07:11:40.720Z,5.00
2018-08-11T07:12:14.249Z,5.00
2018-08-11T07:12:47.776Z,5.00
2018-08-11T07:13:21.340Z,5.00
2018-08-11T07:13:54.917Z,5.00
2018-08-11T07:14:28.472Z,5.00